createdAt,value
2022-09-11T00:00:53.062Z,17.80
2022-09-11T00:01:49.659Z,16.23
2022-09-11T00:02:46.323Z,21.33
2022-09-11T00:03:44.835Z,18.65
2022-09-11T00:04:41.425Z,28.63
2022-09-11T00:05:41.743Z,27.05
2022-09-11T00:06:39.563Z,20.80
2022-09-11T00:07:36.759Z,18.73
2022-09-11T00:08:33.388Z,22.77
2022-09-11T00:09:29.935Z,17.92
2022-09-11T00:10:27.312Z,22.73
2022-09-11T00:11:23.890Z,19.10
2022-09-11T00:12:22.167Z,20.27
2022-09-11T00:13:22.138Z,23.45
2022-09-11T00:14:19.180Z,21.92
2022-09-11T00:15:15.933Z,21.83
2022-09-11T00:16:28.714Z,20.38
2022-09-11T00:17:25.355Z,17.17
2022-09-11T00:18:21.958Z,22.83
2022-09-11T00:19:20.105Z,17.85
2022-09-11T00:20:16.962Z,18.40
2022-09-11T00:21:13.847Z,17.63
2022-09-11T00:22:11.566Z,23.48
2022-09-11T00:23:08.950Z,26.88
2022-09-11T00:24:08.849Z,26.20
2022-09-11T00:25:05.779Z,19.17
2022-09-11T00:26:04.127Z,20.15
2022-09-11T00:27:01.028Z,18.77
2022-09-11T00:27:57.982Z,21.00
2022-09-11T00:28:55.380Z,18.77
2022-09-11T00:29:51.972Z,22.25
2022-09-11T00:31:01.870Z,20.70
2022-09-11T00:31:58.497Z,19.30
2022-09-11T00:32:55.556Z,20.35
2022-09-11T00:33:52.322Z,24.98
2022-09-11T00:34:50.180Z,19.60
2022-09-11T00:35:57.089Z,21.38
2022-09-11T00:36:53.733Z,24.63
2022-09-11T00:37:50.329Z,17.58
2022-09-11T00:38:47.773Z,23.25
2022-09-11T00:39:44.378Z,18.05
2022-09-11T00:40:48.088Z,15.90
2022-09-11T00:41:46.191Z,21.45
2022-09-11T00:42:43.508Z,18.48
2022-09-11T00:43:56.131Z,18.30
2022-09-11T00:45:02.172Z,21.30
2022-09-11T00:46:02.977Z,17.77
2022-09-11T00:47:03.176Z,18.63
2022-09-11T00:48:00.241Z,11.57
2022-09-11T00:48:59.803Z,16.58
2022-09-11T00:50:03.136Z,16.52
2022-09-11T00:51:03.956Z,21.85
2022-09-11T00:52:15.020Z,23.88
2022-09-11T00:53:17.695Z,23.15
2022-09-11T00:54:19.470Z,20.02
2022-09-11T00:55:18.872Z,22.08
2022-09-11T00:56:15.507Z,20.10
2022-09-11T00:57:12.764Z,17.55
2022-09-11T00:58:15.386Z,16.73
2022-09-11T00:59:13.152Z,19.20
2022-09-11T01:00:12.831Z,17.55
2022-09-11T01:01:10.581Z,17.13
2022-09-11T01:02:12.264Z,19.33
2022-09-11T01:03:08.950Z,21.10
2022-09-11T01:04:06.821Z,16.00
2022-09-11T01:05:06.098Z,16.08
2022-09-11T01:06:02.762Z,14.80
2022-09-11T01:06:59.817Z,16.25
2022-09-11T01:07:56.681Z,16.27
2022-09-11T01:08:53.242Z,18.42
2022-09-11T01:09:51.272Z,15.63
2022-09-11T01:11:31.522Z,17.40
2022-09-11T01:12:51.253Z,15.40
2022-09-11T01:13:59.577Z,18.63
2022-09-11T01:15:05.998Z,20.75
2022-09-11T01:16:39.486Z,14.82
2022-09-11T01:17:40.344Z,20.58
2022-09-11T01:18:46.973Z,16.00
2022-09-11T01:19:52.736Z,14.93
2022-09-11T01:21:13.852Z,19.58
2022-09-11T01:22:45.852Z,15.15
2022-09-11T01:24:29.544Z,17.27
2022-09-11T01:25:52.330Z,16.67
2022-09-11T01:27:04.166Z,15.65
2022-09-11T01:28:07.323Z,13.63
2022-09-11T01:29:16.188Z,12.95
2022-09-11T01:30:16.680Z,15.20
2022-09-11T01:31:20.410Z,19.63
2022-09-11T01:32:24.071Z,17.38
2022-09-11T01:33:40.475Z,14.88
2022-09-11T01:34:51.835Z,14.60
2022-09-11T01:35:48.376Z,15.32
2022-09-11T01:36:53.777Z,15.82
2022-09-11T01:38:01.722Z,14.98
2022-09-11T01:39:00.963Z,13.48
2022-09-11T01:40:05.509Z,18.70
2022-09-11T01:41:09.060Z,14.13
2022-09-11T01:42:10.233Z,21.30
2022-09-11T01:43:13.804Z,12.95
2022-09-11T01:44:18.755Z,15.85
2022-09-11T01:45:17.174Z,15.02
2022-09-11T01:46:23.179Z,17.08
2022-09-11T01:47:21.170Z,14.35
2022-09-11T01:48:25.816Z,15.30
2022-09-11T01:49:35.360Z,13.93
2022-09-11T01:50:33.666Z,15.07
2022-09-11T01:51:35.206Z,14.82
2022-09-11T01:52:39.780Z,15.55
2022-09-11T01:53:43.500Z,16.05
2022-09-11T01:54:56.195Z,20.23
2022-09-11T01:55:58.734Z,14.05
2022-09-11T01:58:15.299Z,12.98
2022-09-11T01:59:17.069Z,12.70
2022-09-11T02:00:14.551Z,13.75
2022-09-11T02:01:23.310Z,18.75
2022-09-11T02:02:27.301Z,14.57
2022-09-11T02:03:31.882Z,16.38
2022-09-11T02:04:37.462Z,17.83
2022-09-11T02:05:43.941Z,19.25
2022-09-11T02:06:49.246Z,19.55
2022-09-11T02:08:24.510Z,20.88
2022-09-11T02:09:26.116Z,16.73
2022-09-11T02:10:30.312Z,19.92
2022-09-11T02:11:29.457Z,27.02
2022-09-11T02:12:32.191Z,19.52
2022-09-11T02:13:40.126Z,20.73
2022-09-11T02:14:42.137Z,26.25
2022-09-11T02:15:43.905Z,19.75
2022-09-11T02:16:45.353Z,17.80
2022-09-11T02:17:58.365Z,23.30
2022-09-11T02:19:09.198Z,26.40
2022-09-11T02:20:06.656Z,24.48
2022-09-11T02:21:03.322Z,26.10
2022-09-11T02:22:00.151Z,22.67
2022-09-11T02:22:57.341Z,21.05
2022-09-11T02:23:55.576Z,25.83
2022-09-11T02:24:53.109Z,18.92
2022-09-11T02:25:50.570Z,23.50
2022-09-11T02:26:55.295Z,19.42
2022-09-11T02:27:52.096Z,20.13
2022-09-11T02:28:48.698Z,21.08
2022-09-11T02:29:45.811Z,16.83
2022-09-11T02:30:44.010Z,29.52
2022-09-11T02:31:42.395Z,27.60
2022-09-11T02:32:43.504Z,29.10
2022-09-11T02:33:40.990Z,35.47
2022-09-11T02:34:40.519Z,17.95
2022-09-11T02:35:47.210Z,13.88
2022-09-11T02:37:11.596Z,20.77
2022-09-11T02:38:20.988Z,18.73
2022-09-11T02:39:41.531Z,18.38
2022-09-11T02:40:50.353Z,17.80
2022-09-11T02:41:51.889Z,25.42
2022-09-11T02:43:13.477Z,27.02
2022-09-11T02:44:19.796Z,23.75
2022-09-11T02:45:25.178Z,24.05
2022-09-11T02:46:39.893Z,22.55
2022-09-11T02:48:11.758Z,23.10
2022-09-11T02:49:31.209Z,22.38
2022-09-11T02:51:00.167Z,24.05
2022-09-11T02:52:12.547Z,21.02
2022-09-11T02:53:27.159Z,30.13
2022-09-11T02:54:32.500Z,23.52
2022-09-11T02:56:20.669Z,24.25
2022-09-11T02:57:29.293Z,26.25
2022-09-11T02:58:30.735Z,27.83
2022-09-11T02:59:42.243Z,30.17
2022-09-11T03:00:40.101Z,24.63
2022-09-11T03:01:55.330Z,24.50
2022-09-11T03:02:53.666Z,27.73
2022-09-11T03:03:51.219Z,26.08
2022-09-11T03:04:48.524Z,24.02
2022-09-11T03:05:46.606Z,23.75
2022-09-11T03:06:43.308Z,25.00
2022-09-11T03:07:39.885Z,24.83
2022-09-11T03:08:36.492Z,25.65
2022-09-11T03:09:34.911Z,24.23
2022-09-11T03:10:31.578Z,23.70
2022-09-11T03:11:28.179Z,19.00
2022-09-11T03:12:24.957Z,18.20
2022-09-11T03:13:21.614Z,19.50
2022-09-11T03:14:18.208Z,21.33
2022-09-11T03:15:16.802Z,18.45
2022-09-11T03:16:13.607Z,16.75
2022-09-11T03:17:10.461Z,17.92
2022-09-11T03:18:07.020Z,17.15
2022-09-11T03:19:04.981Z,19.85
2022-09-11T03:20:01.996Z,21.70
2022-09-11T03:20:58.665Z,14.57
2022-09-11T03:21:55.236Z,16.85
2022-09-11T03:22:51.796Z,16.92
2022-09-11T03:23:48.438Z,17.25
2022-09-11T03:24:45.165Z,23.13
2022-09-11T03:25:41.753Z,17.23
2022-09-11T03:26:38.365Z,19.70
2022-09-11T03:27:35.001Z,19.23
2022-09-11T03:28:32.149Z,18.25
2022-09-11T03:29:28.747Z,22.55
2022-09-11T03:30:25.325Z,17.35
2022-09-11T03:31:22.033Z,17.70
2022-09-11T03:32:18.670Z,18.70
2022-09-11T03:33:17.192Z,21.65
2022-09-11T03:34:14.182Z,24.83
2022-09-11T03:35:11.408Z,22.30
2022-09-11T03:36:09.775Z,17.88
2022-09-11T03:37:06.399Z,19.00
2022-09-11T03:38:03.244Z,19.15
2022-09-11T03:39:00.805Z,19.08
2022-09-11T03:39:57.474Z,17.45
2022-09-11T03:40:55.208Z,21.25
2022-09-11T03:41:52.050Z,22.83
2022-09-11T03:42:48.724Z,20.50
2022-09-11T03:43:45.393Z,19.70
2022-09-11T03:44:42.092Z,17.52
2022-09-11T03:45:39.243Z,21.85
2022-09-11T03:46:35.978Z,14.82
2022-09-11T03:47:32.747Z,22.67
2022-09-11T03:48:29.746Z,19.58
2022-09-11T03:49:26.457Z,18.30
2022-09-11T03:50:23.199Z,20.88
2022-09-11T03:51:21.204Z,21.35
2022-09-11T03:52:17.886Z,16.00
2022-09-11T03:53:14.786Z,15.80
2022-09-11T03:54:11.347Z,18.00
2022-09-11T03:55:08.293Z,17.25
2022-09-11T03:56:06.498Z,16.08
2022-09-11T03:57:03.184Z,13.38
2022-09-11T03:58:00.132Z,15.07
2022-09-11T03:58:57.654Z,15.85
2022-09-11T03:59:55.983Z,14.65
2022-09-11T04:00:52.693Z,12.48
2022-09-11T04:01:50.812Z,17.45
2022-09-11T04:02:47.968Z,15.15
2022-09-11T04:03:44.577Z,15.30
2022-09-11T04:04:41.388Z,15.27
2022-09-11T04:05:38.731Z,21.63
2022-09-11T04:06:35.700Z,17.52
2022-09-11T04:07:32.386Z,20.35
2022-09-11T04:08:33.752Z,14.45
2022-09-11T04:09:31.831Z,18.25
2022-09-11T04:10:28.473Z,17.63
2022-09-11T04:11:25.036Z,14.60
2022-09-11T04:12:21.621Z,14.93
2022-09-11T04:13:18.200Z,13.25
2022-09-11T04:14:14.834Z,16.45
2022-09-11T04:15:11.551Z,16.98
2022-09-11T04:16:12.784Z,18.45
2022-09-11T04:17:09.821Z,15.85
2022-09-11T04:18:07.336Z,22.65
2022-09-11T04:19:04.154Z,16.67
2022-09-11T04:20:00.945Z,20.35
2022-09-11T04:20:57.590Z,18.73
2022-09-11T04:21:54.361Z,18.55
2022-09-11T04:22:51.171Z,19.58
2022-09-11T04:23:52.507Z,18.35
2022-09-11T04:24:49.060Z,17.30
2022-09-11T04:25:45.616Z,16.40
2022-09-11T04:26:42.585Z,12.48
2022-09-11T04:27:39.654Z,18.70
2022-09-11T04:28:36.741Z,32.63
2022-09-11T04:29:33.809Z,81.53
2022-09-11T04:30:30.458Z,143.07
2022-09-11T04:31:27.852Z,76.85
2022-09-11T04:32:24.538Z,145.88
2022-09-11T04:33:21.894Z,116.55
2022-09-11T04:34:19.772Z,87.47
2022-09-11T04:35:16.600Z,111.60
2022-09-11T04:36:19.273Z,155.50
2022-09-11T04:37:16.722Z,108.20
2022-09-11T04:38:13.420Z,95.18
2022-09-11T04:39:11.103Z,42.83
2022-09-11T04:40:09.918Z,38.92
2022-09-11T04:41:07.509Z,18.17
2022-09-11T04:42:04.598Z,17.85
2022-09-11T04:43:02.298Z,21.10
2022-09-11T04:44:05.403Z,22.40
2022-09-11T04:45:02.468Z,18.98
2022-09-11T04:46:04.602Z,15.93
2022-09-11T04:47:01.236Z,19.30
2022-09-11T04:47:57.812Z,18.23
2022-09-11T04:48:56.600Z,15.90
2022-09-11T04:49:53.257Z,19.65
2022-09-11T04:50:50.594Z,16.45
2022-09-11T04:51:47.249Z,19.85
2022-09-11T04:52:45.387Z,18.65
2022-09-11T04:53:42.150Z,17.20
2022-09-11T04:54:38.890Z,19.98
2022-09-11T04:55:35.428Z,21.02
2022-09-11T04:56:37.908Z,17.98
2022-09-11T04:58:31.649Z,14.73
2022-09-11T04:59:28.485Z,16.88
2022-09-11T05:00:25.166Z,21.35
2022-09-11T05:01:23.569Z,16.83
2022-09-11T05:02:20.219Z,19.20
2022-09-11T05:03:18.034Z,17.85
2022-09-11T05:04:15.916Z,15.57
2022-09-11T05:05:13.055Z,18.10
2022-09-11T05:06:11.300Z,19.75
2022-09-11T05:07:08.116Z,19.50
2022-09-11T05:08:04.713Z,17.58
2022-09-11T05:09:04.578Z,20.25
2022-09-11T05:10:01.770Z,20.42
2022-09-11T05:11:00.078Z,20.55
2022-09-11T05:11:57.192Z,19.48
2022-09-11T05:12:53.776Z,14.82
2022-09-11T05:13:50.395Z,16.25
2022-09-11T05:14:47.045Z,19.95
2022-09-11T05:15:43.833Z,23.17
2022-09-11T05:16:40.461Z,15.20
2022-09-11T05:17:37.045Z,19.10
2022-09-11T05:18:33.615Z,17.58
2022-09-11T05:19:30.152Z,16.13
2022-09-11T05:20:26.719Z,24.08
2022-09-11T05:21:25.811Z,20.33
2022-09-11T05:22:23.200Z,24.20
2022-09-11T05:23:20.251Z,19.35
2022-09-11T05:24:17.097Z,19.80
2022-09-11T05:25:14.057Z,15.90
2022-09-11T05:26:21.499Z,19.35
2022-09-11T05:27:18.060Z,18.55
2022-09-11T05:28:14.756Z,16.75
2022-09-11T05:29:15.747Z,16.10
2022-09-11T05:30:12.695Z,13.00
2022-09-11T05:31:17.569Z,18.17
2022-09-11T05:32:14.333Z,19.10
2022-09-11T05:33:12.872Z,15.00
2022-09-11T05:34:09.639Z,17.38
2022-09-11T05:35:07.240Z,14.88
2022-09-11T05:36:06.303Z,14.55
2022-09-11T05:37:03.146Z,14.63
2022-09-11T05:37:59.795Z,14.40
2022-09-11T05:38:57.150Z,13.32
2022-09-11T05:39:53.899Z,14.77
2022-09-11T05:40:52.218Z,15.48
2022-09-11T05:41:51.775Z,15.43
2022-09-11T05:42:48.330Z,13.88
2022-09-11T05:43:45.273Z,14.23
2022-09-11T05:44:41.887Z,13.65
2022-09-11T05:45:38.542Z,13.27
2022-09-11T05:46:35.244Z,14.68
2022-09-11T05:47:31.914Z,13.23
2022-09-11T05:48:29.930Z,11.52
2022-09-11T05:49:26.614Z,15.77
2022-09-11T05:50:23.271Z,13.50
2022-09-11T05:51:21.525Z,14.02
2022-09-11T05:52:18.310Z,13.68
2022-09-11T05:53:14.861Z,12.05
2022-09-11T05:54:11.753Z,14.48
2022-09-11T05:55:08.967Z,12.82
2022-09-11T05:56:17.675Z,12.82
2022-09-11T05:57:14.322Z,10.82
2022-09-11T05:58:11.380Z,10.55
2022-09-11T05:59:14.428Z,10.18
2022-09-11T06:00:13.464Z,8.57
2022-09-11T06:01:12.871Z,12.77
2022-09-11T06:02:11.682Z,12.65
2022-09-11T06:03:10.584Z,10.25
2022-09-11T06:04:11.138Z,11.45
2022-09-11T06:05:09.144Z,10.10
2022-09-11T06:06:11.323Z,8.98
2022-09-11T06:07:07.908Z,11.95
2022-09-11T06:08:04.841Z,13.20
2022-09-11T06:09:01.644Z,12.32
2022-09-11T06:10:02.930Z,14.50
2022-09-11T06:11:01.265Z,10.52
2022-09-11T06:11:57.912Z,9.70
2022-09-11T06:12:54.503Z,11.63
2022-09-11T06:13:51.223Z,10.27
2022-09-11T06:14:47.787Z,10.73
2022-09-11T06:15:47.060Z,12.55
2022-09-11T06:16:43.963Z,10.00
2022-09-11T06:17:40.943Z,13.32
2022-09-11T06:18:38.029Z,13.00
2022-09-11T06:19:34.926Z,9.85
2022-09-11T06:20:31.551Z,10.25
2022-09-11T06:21:29.297Z,12.45
2022-09-11T06:22:27.365Z,9.25
2022-09-11T06:23:23.988Z,15.43
2022-09-11T06:24:20.532Z,8.50
2022-09-11T06:25:17.109Z,10.82
2022-09-11T06:26:15.671Z,7.95
2022-09-11T06:27:12.282Z,12.15
2022-09-11T06:28:08.834Z,9.48
2022-09-11T06:29:05.461Z,11.77
2022-09-11T06:30:02.157Z,11.23
2022-09-11T06:30:58.902Z,9.77
2022-09-11T06:31:55.544Z,12.73
2022-09-11T06:32:52.119Z,7.75
2022-09-11T06:33:49.282Z,10.85
2022-09-11T06:34:46.777Z,12.85
2022-09-11T06:35:43.392Z,7.60
2022-09-11T06:36:40.154Z,9.52
2022-09-11T06:37:36.777Z,24.08
2022-09-11T06:38:33.821Z,43.05
2022-09-11T06:39:30.438Z,55.88
2022-09-11T06:40:27.059Z,50.95
2022-09-11T06:41:25.273Z,24.40
2022-09-11T06:42:21.876Z,26.33
2022-09-11T06:43:18.726Z,21.10
2022-09-11T06:44:15.413Z,11.15
2022-09-11T06:45:11.993Z,9.88
2022-09-11T06:46:13.431Z,10.55
2022-09-11T06:47:10.107Z,9.70
2022-09-11T06:48:06.791Z,10.77
2022-09-11T06:49:03.560Z,9.85
2022-09-11T06:50:00.183Z,8.23
2022-09-11T06:50:57.353Z,12.07
2022-09-11T06:51:54.477Z,13.00
2022-09-11T06:52:51.968Z,11.93
2022-09-11T06:53:49.133Z,12.13
2022-09-11T06:54:45.715Z,11.52
2022-09-11T06:55:42.263Z,8.82
2022-09-11T06:56:38.979Z,13.35
2022-09-11T06:57:39.910Z,12.52
2022-09-11T06:58:40.022Z,10.00
2022-09-11T06:59:36.596Z,8.32
2022-09-11T07:00:34.343Z,12.82
2022-09-11T07:01:31.058Z,9.88
2022-09-11T07:02:27.656Z,9.07
2022-09-11T07:03:24.201Z,10.57
2022-09-11T07:04:21.133Z,9.75
2022-09-11T07:05:17.792Z,7.75
2022-09-11T07:06:20.418Z,9.85
2022-09-11T07:07:17.087Z,7.90
2022-09-11T07:08:13.911Z,8.25
2022-09-11T07:09:12.081Z,7.80
2022-09-11T07:10:10.467Z,7.00
2022-09-11T07:11:08.429Z,10.10
2022-09-11T07:12:05.373Z,6.55
2022-09-11T07:13:01.954Z,10.10
2022-09-11T07:13:59.758Z,8.13
2022-09-11T07:14:56.369Z,8.43
2022-09-11T07:16:04.345Z,7.90
2022-09-11T07:17:01.483Z,7.53
2022-09-11T07:17:58.424Z,6.22
2022-09-11T07:18:55.089Z,7.55
2022-09-11T07:19:51.973Z,9.98
2022-09-11T07:20:48.625Z,10.70
2022-09-11T07:21:45.201Z,7.07
2022-09-11T07:22:41.828Z,6.93
2022-09-11T07:23:39.478Z,9.98
2022-09-11T07:24:36.144Z,7.18
2022-09-11T07:25:32.803Z,7.97
2022-09-11T07:26:30.553Z,6.03
2022-09-11T07:27:28.207Z,7.18
2022-09-11T07:28:25.517Z,6.30
2022-09-11T07:29:22.541Z,6.32
2022-09-11T07:30:19.604Z,6.90
2022-09-11T07:31:20.926Z,6.05
2022-09-11T07:32:17.873Z,5.40
2022-09-11T07:33:14.562Z,6.97
2022-09-11T07:34:11.212Z,7.05
2022-09-11T07:35:10.309Z,6.07
2022-09-11T07:36:12.105Z,5.95
2022-09-11T07:37:08.796Z,8.00
2022-09-11T07:38:05.368Z,8.85
2022-09-11T07:39:03.479Z,9.02
2022-09-11T07:40:00.208Z,9.00
2022-09-11T07:40:58.134Z,7.55
2022-09-11T07:41:54.813Z,5.97
2022-09-11T07:42:51.378Z,5.30
2022-09-11T07:43:53.198Z,9.35
2022-09-11T07:44:50.802Z,5.97
2022-09-11T07:45:48.211Z,6.47
2022-09-11T07:46:44.910Z,5.78
2022-09-11T07:47:41.776Z,7.05
2022-09-11T07:48:39.679Z,5.78
2022-09-11T07:49:36.345Z,6.40
2022-09-11T07:50:33.343Z,5.90
2022-09-11T07:51:29.939Z,6.47
2022-09-11T07:52:26.986Z,6.85
2022-09-11T07:53:24.733Z,8.70
2022-09-11T07:54:22.202Z,5.32
2022-09-11T07:55:19.053Z,6.15
2022-09-11T07:56:26.129Z,7.97
2022-09-11T07:57:24.236Z,5.97
2022-09-11T07:58:20.837Z,4.72
2022-09-11T07:59:18.349Z,7.18
2022-09-11T08:00:16.495Z,6.20
2022-09-11T08:01:15.871Z,5.65
2022-09-11T08:02:12.816Z,5.20
2022-09-11T08:03:09.428Z,4.30
2022-09-11T08:04:07.747Z,5.53
2022-09-11T08:05:04.657Z,7.82
2022-09-11T08:06:04.096Z,6.07
2022-09-11T08:07:00.730Z,5.32
2022-09-11T08:07:57.279Z,8.05
2022-09-11T08:08:56.103Z,5.93
2022-09-11T08:10:04.634Z,5.70
2022-09-11T08:11:12.567Z,4.82
2022-09-11T08:12:10.090Z,5.20
2022-09-11T08:13:09.428Z,4.68
2022-09-11T08:14:07.483Z,5.75
2022-09-11T08:15:04.474Z,8.27
2022-09-11T08:16:01.667Z,7.43
2022-09-11T08:16:58.806Z,6.47
2022-09-11T08:17:55.390Z,6.35
2022-09-11T08:18:52.609Z,5.75
2022-09-11T08:19:49.192Z,5.30
2022-09-11T08:20:45.871Z,7.85
2022-09-11T08:21:42.779Z,9.30
2022-09-11T08:22:39.833Z,6.72
2022-09-11T08:23:38.450Z,5.40
2022-09-11T08:24:35.733Z,6.43
2022-09-11T08:25:34.968Z,5.82
2022-09-11T08:26:31.657Z,5.30
2022-09-11T08:27:28.577Z,7.65
2022-09-11T08:28:25.271Z,5.47
2022-09-11T08:29:22.013Z,5.32
2022-09-11T08:30:18.708Z,19.33
2022-09-11T08:31:15.314Z,8.25
2022-09-11T08:32:13.679Z,6.25
2022-09-11T08:33:12.518Z,6.05
2022-09-11T08:34:09.944Z,5.90
2022-09-11T08:35:06.944Z,6.40
2022-09-11T08:36:06.241Z,5.13
2022-09-11T08:37:03.097Z,6.70
2022-09-11T08:38:00.374Z,5.97
2022-09-11T08:39:00.393Z,5.75
2022-09-11T08:39:57.093Z,9.52
2022-09-11T08:40:54.901Z,6.95
2022-09-11T08:42:14.703Z,5.50
2022-09-11T08:43:21.996Z,6.00
2022-09-11T08:44:41.617Z,6.20
2022-09-11T08:45:38.376Z,4.80
2022-09-11T08:46:43.407Z,5.88
2022-09-11T08:47:42.003Z,6.60
2022-09-11T08:48:53.818Z,5.88
2022-09-11T08:50:01.577Z,5.93
2022-09-11T08:50:58.595Z,7.05
2022-09-11T08:52:01.721Z,7.72
2022-09-11T08:53:02.296Z,7.07
2022-09-11T08:54:02.005Z,5.53
2022-09-11T08:54:59.586Z,5.85
2022-09-11T08:56:01.784Z,7.80
2022-09-11T08:57:05.742Z,6.40
2022-09-11T08:58:26.847Z,6.10
2022-09-11T08:59:50.503Z,5.90
2022-09-11T09:02:10.695Z,6.38
2022-09-11T09:03:16.231Z,8.55
2022-09-11T09:04:28.180Z,11.35
2022-09-11T09:05:40.107Z,7.07
2022-09-11T09:06:51.228Z,6.57
2022-09-11T09:08:01.727Z,8.60
2022-09-11T09:09:09.999Z,7.53
2022-09-11T09:10:49.264Z,9.68
2022-09-11T09:11:55.921Z,6.53
2022-09-11T09:13:15.288Z,8.10
2022-09-11T09:14:21.020Z,7.30
2022-09-11T09:15:29.507Z,7.45
2022-09-11T09:16:42.215Z,8.30
2022-09-11T09:17:49.209Z,7.45
2022-09-11T09:19:03.389Z,7.07
2022-09-11T09:20:11.143Z,8.32
2022-09-11T09:21:24.550Z,9.02
2022-09-11T09:22:35.318Z,7.10
2022-09-11T09:23:39.581Z,8.73
2022-09-11T09:24:50.299Z,7.72
2022-09-11T09:25:49.048Z,8.77
2022-09-11T09:26:53.047Z,6.65
2022-09-11T09:28:03.937Z,8.18
2022-09-11T09:29:05.076Z,7.70
2022-09-11T09:30:06.141Z,7.68
2022-09-11T09:31:08.570Z,7.97
2022-09-11T09:32:13.895Z,8.10
2022-09-11T09:33:13.489Z,7.43
2022-09-11T09:34:22.359Z,11.43
2022-09-11T09:35:26.913Z,8.52
2022-09-11T09:36:31.483Z,15.88
2022-09-11T09:37:28.684Z,10.57
2022-09-11T09:38:31.452Z,8.35
2022-09-11T09:39:29.100Z,8.07
2022-09-11T09:40:27.279Z,7.28
2022-09-11T09:42:03.864Z,6.22
2022-09-11T09:43:49.937Z,6.93
2022-09-11T09:45:14.505Z,9.15
2022-09-11T09:46:52.145Z,8.15
2022-09-11T09:47:49.340Z,9.27
2022-09-11T09:48:46.488Z,6.63
2022-09-11T09:49:45.007Z,8.52
2022-09-11T09:50:44.780Z,6.90
2022-09-11T09:51:41.671Z,7.10
2022-09-11T09:52:38.948Z,6.85
2022-09-11T09:53:41.597Z,7.55
2022-09-11T09:54:39.626Z,7.18
2022-09-11T09:55:39.238Z,8.57
2022-09-11T09:56:37.731Z,7.57
2022-09-11T09:57:37.276Z,6.47
2022-09-11T09:58:40.853Z,6.40
2022-09-11T09:59:46.805Z,5.97
2022-09-11T10:00:44.002Z,6.53
2022-09-11T10:01:51.099Z,7.18
2022-09-11T10:02:55.482Z,7.35
2022-09-11T10:04:11.104Z,5.70
2022-09-11T10:05:16.969Z,6.35
2022-09-11T10:06:14.073Z,7.10
2022-09-11T10:07:14.210Z,6.45
2022-09-11T10:08:34.035Z,6.85
2022-09-11T10:09:31.295Z,6.68
2022-09-11T10:10:29.884Z,6.22
2022-09-11T10:11:29.946Z,6.78
2022-09-11T10:12:28.405Z,10.98
2022-09-11T10:13:28.852Z,8.68
2022-09-11T10:14:49.694Z,6.32
2022-09-11T10:15:44.074Z,5.68
2022-09-11T10:16:40.737Z,7.28
2022-09-11T10:17:37.900Z,5.07
2022-09-11T10:18:37.639Z,8.93
2022-09-11T10:19:43.391Z,5.00
2022-09-11T10:20:41.288Z,6.22
2022-09-11T10:21:39.629Z,6.40
2022-09-11T10:22:36.722Z,8.90
2022-09-11T10:23:51.118Z,5.78
2022-09-11T10:24:59.421Z,6.85
2022-09-11T10:25:56.085Z,5.55
2022-09-11T10:26:56.045Z,6.05
2022-09-11T10:28:11.187Z,5.15
2022-09-11T10:29:14.234Z,4.40
2022-09-11T10:30:43.946Z,5.55
2022-09-11T10:31:48.487Z,7.15
2022-09-11T10:32:45.102Z,4.45
2022-09-11T10:33:48.795Z,5.15
2022-09-11T10:34:45.421Z,4.78
2022-09-11T10:35:50.633Z,4.90
2022-09-11T10:36:56.295Z,7.90
2022-09-11T10:38:19.043Z,7.22
2022-09-11T10:39:20.007Z,4.33
2022-09-11T10:40:21.622Z,6.68
2022-09-11T10:41:22.421Z,4.93
2022-09-11T10:42:25.854Z,4.60
2022-09-11T10:43:26.899Z,8.30
2022-09-11T10:44:24.272Z,5.68
2022-09-11T10:45:22.810Z,5.78
2022-09-11T10:46:19.356Z,6.10
2022-09-11T10:47:22.341Z,5.20
2022-09-11T10:48:22.723Z,6.07
2022-09-11T10:49:22.191Z,6.72
2022-09-11T10:50:18.866Z,5.80
2022-09-11T10:51:15.530Z,5.57
2022-09-11T10:52:12.102Z,6.13
2022-09-11T10:53:23.035Z,5.70
2022-09-11T10:54:44.725Z,4.70
2022-09-11T10:55:53.009Z,5.93
2022-09-11T10:57:13.581Z,5.50
2022-09-11T10:58:32.844Z,6.35
2022-09-11T10:59:35.498Z,7.15
2022-09-11T11:00:32.591Z,5.18
2022-09-11T11:01:29.169Z,5.75
2022-09-11T11:02:50.924Z,5.88
2022-09-11T11:03:47.568Z,4.80
2022-09-11T11:04:44.589Z,4.50
2022-09-11T11:06:04.115Z,5.32
2022-09-11T11:07:06.552Z,4.30
2022-09-11T11:09:47.645Z,4.80
2022-09-11T11:10:51.333Z,4.65
2022-09-11T11:12:17.566Z,5.57
2022-09-11T11:13:35.725Z,4.97
2022-09-11T11:14:54.711Z,4.60
2022-09-11T11:16:05.417Z,4.18
2022-09-11T11:17:32.944Z,5.20
2022-09-11T11:18:42.812Z,4.40
2022-09-11T11:20:11.723Z,5.22
2022-09-11T11:21:27.028Z,4.53
2022-09-11T11:22:51.561Z,5.38
2022-09-11T11:23:57.164Z,7.28
2022-09-11T11:25:21.677Z,5.13
2022-09-11T11:26:31.657Z,4.72
2022-09-11T11:27:57.330Z,5.80
2022-09-11T11:29:11.979Z,7.13
2022-09-11T11:30:15.759Z,5.72
2022-09-11T11:31:21.210Z,4.22
2022-09-11T11:32:36.722Z,4.57
2022-09-11T11:33:52.713Z,4.85
2022-09-11T11:35:07.575Z,4.97
2022-09-11T11:36:12.343Z,5.53
2022-09-11T11:37:14.934Z,7.15
2022-09-11T11:38:22.539Z,6.97
2022-09-11T11:39:25.218Z,5.88
2022-09-11T11:40:36.949Z,4.65
2022-09-11T11:41:44.623Z,4.45
2022-09-11T11:42:58.754Z,4.20
2022-09-11T11:43:59.084Z,4.68
2022-09-11T11:45:09.530Z,4.53
2022-09-11T11:46:13.182Z,4.78
2022-09-11T11:47:11.083Z,3.88
2022-09-11T11:48:17.277Z,6.00
2022-09-11T11:49:23.518Z,4.18
2022-09-11T11:50:34.233Z,6.38
2022-09-11T11:51:39.499Z,4.38
2022-09-11T11:52:52.356Z,6.40
2022-09-11T11:54:01.869Z,4.78
2022-09-11T11:55:16.959Z,4.65
2022-09-11T11:56:14.786Z,6.53
2022-09-11T11:57:20.760Z,4.40
2022-09-11T11:58:32.196Z,4.22
2022-09-11T11:59:47.384Z,5.07
2022-09-11T12:00:52.209Z,4.57
2022-09-11T12:02:03.534Z,4.18
2022-09-11T12:03:15.708Z,4.15
2022-09-11T12:04:36.988Z,7.93
2022-09-11T12:05:34.887Z,4.20
2022-09-11T12:06:31.508Z,6.28
2022-09-11T12:07:34.205Z,4.50
2022-09-11T12:08:30.896Z,4.07
2022-09-11T12:09:32.921Z,4.07
2022-09-11T12:10:35.499Z,4.10
2022-09-11T12:11:33.870Z,5.18
2022-09-11T12:12:34.852Z,4.97
2022-09-11T12:13:35.583Z,4.70
2022-09-11T12:14:34.276Z,4.80
2022-09-11T12:15:33.723Z,4.07
2022-09-11T12:16:35.161Z,4.65
2022-09-11T12:17:34.552Z,4.45
2022-09-11T12:18:31.744Z,5.15
2022-09-11T12:19:28.400Z,3.80
2022-09-11T12:20:35.263Z,4.25
2022-09-11T12:21:31.916Z,4.05
2022-09-11T12:22:34.674Z,3.88
2022-09-11T12:23:31.273Z,4.28
2022-09-11T12:24:52.444Z,4.10
2022-09-11T12:25:53.641Z,3.47
2022-09-11T12:27:33.821Z,5.25
2022-09-11T12:28:30.579Z,4.35
2022-09-11T12:29:29.949Z,5.78
2022-09-11T12:30:28.686Z,3.55
2022-09-11T12:31:25.407Z,6.82
2022-09-11T12:32:41.919Z,5.35
2022-09-11T12:33:50.876Z,4.22
2022-09-11T12:34:47.835Z,4.82
2022-09-11T12:35:49.462Z,3.58
2022-09-11T12:36:56.932Z,4.10
2022-09-11T12:37:58.193Z,3.97
2022-09-11T12:39:06.534Z,5.28
2022-09-11T12:40:32.394Z,4.43
2022-09-11T12:41:30.819Z,4.43
2022-09-11T12:42:47.766Z,3.90
2022-09-11T12:43:46.582Z,4.35
2022-09-11T12:44:45.947Z,3.83
2022-09-11T12:45:43.845Z,3.97
2022-09-11T12:46:40.558Z,3.78
2022-09-11T12:47:39.902Z,3.55
2022-09-11T12:48:44.121Z,3.60
2022-09-11T12:49:42.724Z,3.47
2022-09-11T12:50:40.748Z,4.05
2022-09-11T12:51:42.439Z,3.85
2022-09-11T12:52:47.818Z,3.20
2022-09-11T12:53:47.007Z,5.90
2022-09-11T12:54:44.620Z,3.72
2022-09-11T12:55:53.125Z,4.88
2022-09-11T12:57:06.784Z,3.35
2022-09-11T12:58:20.807Z,5.47
2022-09-11T12:59:46.225Z,4.30
2022-09-11T13:00:46.235Z,3.25
2022-09-11T13:01:46.921Z,5.25
2022-09-11T13:02:46.811Z,3.80
2022-09-11T13:03:53.417Z,5.43
2022-09-11T13:04:52.232Z,3.95
2022-09-11T13:06:00.179Z,3.92
2022-09-11T13:07:04.158Z,3.20
2022-09-11T13:08:07.075Z,4.78
2022-09-11T13:09:05.818Z,3.17
2022-09-11T13:10:09.868Z,10.27
2022-09-11T13:11:34.455Z,3.55
2022-09-11T13:12:49.999Z,3.92
2022-09-11T13:13:47.011Z,4.47
2022-09-11T13:14:56.633Z,3.17
2022-09-11T13:15:57.345Z,4.15
2022-09-11T13:16:57.941Z,3.95
2022-09-11T13:17:54.728Z,3.45
2022-09-11T13:18:53.807Z,2.72
2022-09-11T13:19:51.624Z,3.25
2022-09-11T13:21:14.737Z,2.60
2022-09-11T13:22:31.411Z,2.60
2022-09-11T13:23:29.195Z,3.10
2022-09-11T13:24:30.368Z,5.15
2022-09-11T13:25:28.182Z,2.05
2022-09-11T13:26:31.339Z,2.53
2022-09-11T13:27:28.318Z,2.38
2022-09-11T13:28:27.809Z,4.10
2022-09-11T13:29:27.625Z,2.78
2022-09-11T13:30:25.809Z,2.83
2022-09-11T13:31:35.564Z,2.13
2022-09-11T13:32:32.854Z,4.00
2022-09-11T13:33:31.175Z,3.45
2022-09-11T13:34:29.734Z,2.42